sensor_id;sensor_type;location;lat;lon;timestamp;P1;durP1;ratioP1;P2;durP2;ratioP2
30133;SDS011;16946;49.984;10.672;2024-01-10T00:00:19;20.98;;;12.70;;
30133;SDS011;16946;49.984;10.672;2024-01-10T00:00:49;21.63;;;13.33;;
30133;SDS011;16946;49.984;10.672;2024-01-10T00:01:20;22.47;;;12.70;;
30133;SDS011;16946;49.984;10.672;2024-01-10T00:01:51;21.23;;;11.97;;
30133;SDS011;16946;49.984;10.672;2024-01-10T00:02:21;20.10;;;13.13;;
30133;SDS011;16946;49.984;10.672;2024-01-10T00:02:52;20.97;;;12.93;;
30133;SDS011;16946;49.984;10.672;2024-01-10T00:03:22;23.20;;;13.63;;
30133;SDS011;16946;49.984;10.672;2024-01-10T00:03:54;16.90;;;11.33;;
30133;SDS011;16946;49.984;10.672;2024-01-10T00:04:24;22.52;;;12.95;;
30133;SDS011;16946;49.984;10.672;2024-01-10T00:04:55;20.47;;;12.53;;
30133;SDS011;16946;49.984;10.672;2024-01-10T00:05:25;19.10;;;13.07;;
30133;SDS011;16946;49.984;10.672;2024-01-10T00:05:56;18.30;;;13.10;;
30133;SDS011;16946;49.984;10.672;2024-01-10T00:06:26;19.93;;;12.00;;
30133;SDS011;16946;49.984;10.672;2024-01-10T00:06:57;22.60;;;12.80;;
30133;SDS011;16946;49.984;10.672;2024-01-10T00:07:28;18.10;;;12.20;;
30133;SDS011;16946;49.984;10.672;2024-01-10T00:07:58;18.47;;;12.73;;
30133;SDS011;16946;49.984;10.672;2024-01-10T00:08:29;18.00;;;11.60;;
30133;SDS011;16946;49.984;10.672;2024-01-10T00:08:59;14.87;;;11.07;;
30133;SDS011;16946;49.984;10.672;2024-01-10T00:09:30;19.67;;;11.70;;
30133;SDS011;16946;49.984;10.672;2024-01-10T00:10:00;21.90;;;12.70;;
30133;SDS011;16946;49.984;10.672;2024-01-10T00:10:32;18.73;;;12.43;;
30133;SDS011;16946;49.984;10.672;2024-01-10T00:11:02;17.47;;;11.40;;
30133;SDS011;16946;49.984;10.672;2024-01-10T00:11:33;20.93;;;12.80;;
30133;SDS011;16946;49.984;10.672;2024-01-10T00:12:03;18.13;;;11.87;;
30133;SDS011;16946;49.984;10.672;2024-01-10T00:12:34;22.67;;;12.67;;
30133;SDS011;16946;49.984;10.672;2024-01-10T00:13:06;17.25;;;12.07;;
30133;SDS011;16946;49.984;10.672;2024-01-10T00:13:37;20.13;;;12.50;;
30133;SDS011;16946;49.984;10.672;2024-01-10T00:14:07;21.27;;;12.53;;
30133;SDS011;16946;49.984;10.672;2024-01-10T00:14:39;21.33;;;12.75;;
30133;SDS011;16946;49.984;10.672;2024-01-10T00:15:09;24.07;;;13.47;;
30133;SDS011;16946;49.984;10.672;2024-01-10T00:15:40;19.80;;;12.57;;
30133;SDS011;16946;49.984;10.672;2024-01-10T00:16:14;18.63;;;12.97;;
30133;SDS011;16946;49.984;10.672;2024-01-10T00:16:45;22.10;;;12.98;;
30133;SDS011;16946;49.984;10.672;2024-01-10T00:17:15;18.87;;;12.73;;
30133;SDS011;16946;49.984;10.672;2024-01-10T00:17:46;20.67;;;12.90;;
30133;SDS011;16946;49.984;10.672;2024-01-10T00:18:16;30.90;;;17.23;;
30133;SDS011;16946;49.984;10.672;2024-01-10T00:18:47;29.27;;;17.97;;
30133;SDS011;16946;49.984;10.672;2024-01-10T00:19:17;35.80;;;21.17;;
30133;SDS011;16946;49.984;10.672;2024-01-10T00:19:48;70.27;;;39.63;;
30133;SDS011;16946;49.984;10.672;2024-01-10T00:20:18;27.13;;;18.17;;
30133;SDS011;16946;49.984;10.672;2024-01-10T00:20:49;41.10;;;28.27;;
30133;SDS011;16946;49.984;10.672;2024-01-10T00:21:20;37.53;;;22.20;;
30133;SDS011;16946;49.984;10.672;2024-01-10T00:21:50;35.27;;;21.90;;
30133;SDS011;16946;49.984;10.672;2024-01-10T00:22:21;22.03;;;13.57;;
30133;SDS011;16946;49.984;10.672;2024-01-10T00:22:51;21.13;;;13.33;;
30133;SDS011;16946;49.984;10.672;2024-01-10T00:23:22;18.77;;;11.40;;
30133;SDS011;16946;49.984;10.672;2024-01-10T00:23:53;19.80;;;13.47;;
30133;SDS011;16946;49.984;10.672;2024-01-10T00:24:23;17.27;;;11.47;;
30133;SDS011;16946;49.984;10.672;2024-01-10T00:24:54;18.20;;;12.40;;
30133;SDS011;16946;49.984;10.672;2024-01-10T00:25:24;22.07;;;12.57;;
30133;SDS011;16946;49.984;10.672;2024-01-10T00:25:55;21.93;;;12.00;;
30133;SDS011;16946;49.984;10.672;2024-01-10T00:26:25;18.07;;;12.10;;
30133;SDS011;16946;49.984;10.672;2024-01-10T00:26:56;20.30;;;11.53;;
30133;SDS011;16946;49.984;10.672;2024-01-10T00:27:26;18.53;;;12.10;;
30133;SDS011;16946;49.984;10.672;2024-01-10T00:27:57;20.80;;;11.73;;
30133;SDS011;16946;49.984;10.672;2024-01-10T00:28:27;17.80;;;11.93;;
30133;SDS011;16946;49.984;10.672;2024-01-10T00:28:58;22.83;;;12.47;;
30133;SDS011;16946;49.984;10.672;2024-01-10T00:29:28;17.57;;;11.57;;
30133;SDS011;16946;49.984;10.672;2024-01-10T00:29:59;18.57;;;12.23;;
30133;SDS011;16946;49.984;10.672;2024-01-10T00:30:29;15.43;;;11.30;;
30133;SDS011;16946;49.984;10.672;2024-01-10T00:31:00;19.77;;;12.10;;
30133;SDS011;16946;49.984;10.672;2024-01-10T00:31:30;17.30;;;11.80;;
30133;SDS011;16946;49.984;10.672;2024-01-10T00:32:01;17.37;;;12.13;;
30133;SDS011;16946;49.984;10.672;2024-01-10T00:32:32;18.97;;;11.57;;
30133;SDS011;16946;49.984;10.672;2024-01-10T00:33:02;18.07;;;12.50;;
30133;SDS011;16946;49.984;10.672;2024-01-10T00:33:33;17.60;;;11.97;;
30133;SDS011;16946;49.984;10.672;2024-01-10T00:34:04;19.33;;;12.73;;
30133;SDS011;16946;49.984;10.672;2024-01-10T00:34:34;18.73;;;12.20;;
30133;SDS011;16946;49.984;10.672;2024-01-10T00:35:05;23.67;;;12.90;;
30133;SDS011;16946;49.984;10.672;2024-01-10T00:35:36;17.53;;;12.73;;
30133;SDS011;16946;49.984;10.672;2024-01-10T00:36:06;16.23;;;11.33;;
30133;SDS011;16946;49.984;10.672;2024-01-10T00:36:37;19.60;;;11.90;;
30133;SDS011;16946;49.984;10.672;2024-01-10T00:37:07;27.87;;;13.70;;
30133;SDS011;16946;49.984;10.672;2024-01-10T00:37:38;19.53;;;11.93;;
30133;SDS011;16946;49.984;10.672;2024-01-10T00:38:09;16.20;;;12.37;;
30133;SDS011;16946;49.984;10.672;2024-01-10T00:38:39;20.10;;;12.83;;
30133;SDS011;16946;49.984;10.672;2024-01-10T00:39:10;20.83;;;12.20;;
30133;SDS011;16946;49.984;10.672;2024-01-10T00:39:41;20.73;;;11.57;;
30133;SDS011;16946;49.984;10.672;2024-01-10T00:40:11;28.47;;;12.03;;
30133;SDS011;16946;49.984;10.672;2024-01-10T00:40:42;17.93;;;12.27;;
30133;SDS011;16946;49.984;10.672;2024-01-10T00:41:12;17.57;;;11.87;;
30133;SDS011;16946;49.984;10.672;2024-01-10T00:41:43;21.80;;;13.17;;
30133;SDS011;16946;49.984;10.672;2024-01-10T00:42:13;19.77;;;12.60;;
30133;SDS011;16946;49.984;10.672;2024-01-10T00:42:44;17.43;;;11.37;;
30133;SDS011;16946;49.984;10.672;2024-01-10T00:43:15;18.27;;;11.83;;
30133;SDS011;16946;49.984;10.672;2024-01-10T00:43:45;23.47;;;12.47;;
30133;SDS011;16946;49.984;10.672;2024-01-10T00:44:16;18.57;;;11.80;;
30133;SDS011;16946;49.984;10.672;2024-01-10T00:44:46;18.03;;;11.80;;
30133;SDS011;16946;49.984;10.672;2024-01-10T00:45:17;20.87;;;13.13;;
30133;SDS011;16946;49.984;10.672;2024-01-10T00:45:47;17.53;;;11.17;;
30133;SDS011;16946;49.984;10.672;2024-01-10T00:46:18;22.20;;;12.30;;
30133;SDS011;16946;49.984;10.672;2024-01-10T00:46:48;18.33;;;12.53;;
30133;SDS011;16946;49.984;10.672;2024-01-10T00:47:19;18.83;;;11.33;;
30133;SDS011;16946;49.984;10.672;2024-01-10T00:47:50;18.43;;;11.63;;
30133;SDS011;16946;49.984;10.672;2024-01-10T00:48:20;18.53;;;11.60;;
30133;SDS011;16946;49.984;10.672;2024-01-10T00:48:51;24.27;;;13.57;;
30133;SDS011;16946;49.984;10.672;2024-01-10T00:49:21;20.73;;;12.20;;
30133;SDS011;16946;49.984;10.672;2024-01-10T00:49:52;16.97;;;11.97;;
30133;SDS011;16946;49.984;10.672;2024-01-10T00:50:22;17.50;;;12.67;;
30133;SDS011;16946;49.984;10.672;2024-01-10T00:50:53;19.47;;;11.83;;
30133;SDS011;16946;49.984;10.672;2024-01-10T00:51:24;21.40;;;12.30;;
30133;SDS011;16946;49.984;10.672;2024-01-10T00:51:54;23.57;;;12.83;;
30133;SDS011;16946;49.984;10.672;2024-01-10T00:52:25;17.87;;;11.37;;
30133;SDS011;16946;49.984;10.672;2024-01-10T00:52:55;19.37;;;12.23;;
30133;SDS011;16946;49.984;10.672;2024-01-10T00:53:26;20.37;;;11.67;;
30133;SDS011;16946;49.984;10.672;2024-01-10T00:53:56;18.90;;;12.17;;
30133;SDS011;16946;49.984;10.672;2024-01-10T00:54:27;21.80;;;12.43;;
30133;SDS011;16946;49.984;10.672;2024-01-10T00:54:57;22.43;;;11.60;;
30133;SDS011;16946;49.984;10.672;2024-01-10T00:55:28;17.13;;;11.33;;
30133;SDS011;16946;49.984;10.672;2024-01-10T00:55:58;16.47;;;11.20;;
30133;SDS011;16946;49.984;10.672;2024-01-10T00:56:29;20.93;;;12.20;;
30133;SDS011;16946;49.984;10.672;2024-01-10T00:56:59;18.60;;;11.33;;
30133;SDS011;16946;49.984;10.672;2024-01-10T00:57:30;19.57;;;11.53;;
30133;SDS011;16946;49.984;10.672;2024-01-10T00:58:00;20.30;;;11.43;;
30133;SDS011;16946;49.984;10.672;2024-01-10T00:58:31;21.97;;;11.53;;
30133;SDS011;16946;49.984;10.672;2024-01-10T00:59:02;16.57;;;10.63;;
30133;SDS011;16946;49.984;10.672;2024-01-10T00:59:32;19.87;;;11.70;;
30133;SDS011;16946;49.984;10.672;2024-01-10T01:00:03;18.20;;;11.47;;
30133;SDS011;16946;49.984;10.672;2024-01-10T01:00:35;17.55;;;11.88;;
30133;SDS011;16946;49.984;10.672;2024-01-10T01:01:06;17.83;;;11.10;;
30133;SDS011;16946;49.984;10.672;2024-01-10T01:01:36;22.37;;;12.37;;
30133;SDS011;16946;49.984;10.672;2024-01-10T01:02:07;22.47;;;12.00;;
30133;SDS011;16946;49.984;10.672;2024-01-10T01:02:37;15.90;;;11.70;;
30133;SDS011;16946;49.984;10.672;2024-01-10T01:03:11;16.30;;;11.82;;
30133;SDS011;16946;49.984;10.672;2024-01-10T01:03:42;17.95;;;11.52;;
30133;SDS011;16946;49.984;10.672;2024-01-10T01:04:12;18.10;;;12.07;;
30133;SDS011;16946;49.984;10.672;2024-01-10T01:04:43;14.83;;;11.37;;
30133;SDS011;16946;49.984;10.672;2024-01-10T01:05:13;18.00;;;11.23;;
30133;SDS011;16946;49.984;10.672;2024-01-10T01:05:44;16.97;;;11.10;;
30133;SDS011;16946;49.984;10.672;2024-01-10T01:06:14;17.20;;;11.73;;
30133;SDS011;16946;49.984;10.672;2024-01-10T01:06:45;18.13;;;11.57;;
30133;SDS011;16946;49.984;10.672;2024-01-10T01:07:15;19.13;;;11.60;;
30133;SDS011;16946;49.984;10.672;2024-01-10T01:07:46;19.13;;;11.80;;
30133;SDS011;16946;49.984;10.672;2024-01-10T01:08:16;17.13;;;11.37;;
30133;SDS011;16946;49.984;10.672;2024-01-10T01:08:47;16.03;;;11.40;;
30133;SDS011;16946;49.984;10.672;2024-01-10T01:09:18;18.30;;;11.40;;
30133;SDS011;16946;49.984;10.672;2024-01-10T01:09:49;18.73;;;11.38;;
30133;SDS011;16946;49.984;10.672;2024-01-10T01:10:19;16.57;;;12.20;;
30133;SDS011;16946;49.984;10.672;2024-01-10T01:10:50;15.63;;;11.50;;
30133;SDS011;16946;49.984;10.672;2024-01-10T01:11:20;18.33;;;11.23;;
30133;SDS011;16946;49.984;10.672;2024-01-10T01:11:51;16.20;;;11.40;;
30133;SDS011;16946;49.984;10.672;2024-01-10T01:12:21;15.93;;;11.60;;
30133;SDS011;16946;49.984;10.672;2024-01-10T01:12:52;17.23;;;11.37;;
30133;SDS011;16946;49.984;10.672;2024-01-10T01:13:22;16.20;;;10.80;;
30133;SDS011;16946;49.984;10.672;2024-01-10T01:13:53;14.63;;;11.07;;
30133;SDS011;16946;49.984;10.672;2024-01-10T01:14:23;17.87;;;11.43;;
30133;SDS011;16946;49.984;10.672;2024-01-10T01:14:54;18.83;;;11.23;;
30133;SDS011;16946;49.984;10.672;2024-01-10T01:15:24;17.57;;;10.73;;
30133;SDS011;16946;49.984;10.672;2024-01-10T01:15:55;18.67;;;12.07;;
30133;SDS011;16946;49.984;10.672;2024-01-10T01:16:25;15.67;;;10.87;;
30133;SDS011;16946;49.984;10.672;2024-01-10T01:16:56;17.80;;;11.73;;
30133;SDS011;16946;49.984;10.672;2024-01-10T01:17:27;15.97;;;11.40;;
30133;SDS011;16946;49.984;10.672;2024-01-10T01:17:57;17.17;;;11.13;;
30133;SDS011;16946;49.984;10.672;2024-01-10T01:18:28;18.43;;;11.60;;
30133;SDS011;16946;49.984;10.672;2024-01-10T01:18:58;19.70;;;11.77;;
30133;SDS011;16946;49.984;10.672;2024-01-10T01:19:29;15.73;;;9.97;;
30133;SDS011;16946;49.984;10.672;2024-01-10T01:19:59;17.90;;;10.90;;
30133;SDS011;16946;49.984;10.672;2024-01-10T01:20:30;17.93;;;11.40;;
30133;SDS011;16946;49.984;10.672;2024-01-10T01:21:01;16.57;;;11.27;;
30133;SDS011;16946;49.984;10.672;2024-01-10T01:21:32;17.38;;;11.27;;
30133;SDS011;16946;49.984;10.672;2024-01-10T01:22:02;16.87;;;11.10;;
30133;SDS011;16946;49.984;10.672;2024-01-10T01:22:33;18.53;;;10.97;;
30133;SDS011;16946;49.984;10.672;2024-01-10T01:23:04;15.80;;;11.10;;
30133;SDS011;16946;49.984;10.672;2024-01-10T01:23:34;15.67;;;10.73;;
30133;SDS011;16946;49.984;10.672;2024-01-10T01:24:05;16.23;;;11.30;;
30133;SDS011;16946;49.984;10.672;2024-01-10T01:24:35;14.83;;;10.73;;
30133;SDS011;16946;49.984;10.672;2024-01-10T01:25:06;19.97;;;11.77;;
30133;SDS011;16946;49.984;10.672;2024-01-10T01:25:37;17.92;;;11.43;;
30133;SDS011;16946;49.984;10.672;2024-01-10T01:26:08;17.27;;;11.27;;
30133;SDS011;16946;49.984;10.672;2024-01-10T01:26:38;18.83;;;11.90;;
30133;SDS011;16946;49.984;10.672;2024-01-10T01:27:09;25.63;;;12.60;;
30133;SDS011;16946;49.984;10.672;2024-01-10T01:27:39;20.30;;;11.87;;
30133;SDS011;16946;49.984;10.672;2024-01-10T01:28:10;18.17;;;10.87;;
30133;SDS011;16946;49.984;10.672;2024-01-10T01:28:40;16.83;;;11.23;;
30133;SDS011;16946;49.984;10.672;2024-01-10T01:29:11;19.73;;;11.17;;
30133;SDS011;16946;49.984;10.672;2024-01-10T01:29:42;19.23;;;11.27;;
30133;SDS011;16946;49.984;10.672;2024-01-10T01:30:12;18.17;;;11.23;;
30133;SDS011;16946;49.984;10.672;2024-01-10T01:30:43;15.40;;;10.67;;
30133;SDS011;16946;49.984;10.672;2024-01-10T01:31:14;16.52;;;11.57;;
30133;SDS011;16946;49.984;10.672;2024-01-10T01:31:44;20.13;;;11.47;;
30133;SDS011;16946;49.984;10.672;2024-01-10T01:32:15;17.63;;;10.53;;
30133;SDS011;16946;49.984;10.672;2024-01-10T01:32:45;18.87;;;10.40;;
30133;SDS011;16946;49.984;10.672;2024-01-10T01:33:16;16.57;;;10.27;;
30133;SDS011;16946;49.984;10.672;2024-01-10T01:33:46;19.27;;;11.30;;
30133;SDS011;16946;49.984;10.672;2024-01-10T01:34:17;17.13;;;10.57;;
30133;SDS011;16946;49.984;10.672;2024-01-10T01:34:48;13.93;;;10.53;;
30133;SDS011;16946;49.984;10.672;2024-01-10T01:35:18;17.97;;;11.10;;
30133;SDS011;16946;49.984;10.672;2024-01-10T01:35:51;16.60;;;10.90;;
30133;SDS011;16946;49.984;10.672;2024-01-10T01:36:24;19.67;;;12.50;;
30133;SDS011;16946;49.984;10.672;2024-01-10T01:36:54;14.07;;;10.37;;
30133;SDS011;16946;49.984;10.672;2024-01-10T01:37:25;15.47;;;10.50;;
30133;SDS011;16946;49.984;10.672;2024-01-10T01:37:55;17.30;;;11.30;;
30133;SDS011;16946;49.984;10.672;2024-01-10T01:38:26;19.50;;;11.27;;
30133;SDS011;16946;49.984;10.672;2024-01-10T01:38:56;22.13;;;11.33;;
30133;SDS011;16946;49.984;10.672;2024-01-10T01:39:27;17.60;;;10.77;;
30133;SDS011;16946;49.984;10.672;2024-01-10T01:39:58;17.17;;;11.00;;
30133;SDS011;16946;49.984;10.672;2024-01-10T01:40:28;22.50;;;11.20;;
30133;SDS011;16946;49.984;10.672;2024-01-10T01:40:59;15.70;;;10.77;;
30133;SDS011;16946;49.984;10.672;2024-01-10T01:41:29;18.50;;;10.90;;
30133;SDS011;16946;49.984;10.672;2024-01-10T01:42:00;18.97;;;11.13;;
30133;SDS011;16946;49.984;10.672;2024-01-10T01:42:30;16.77;;;11.20;;
30133;SDS011;16946;49.984;10.672;2024-01-10T01:43:02;18.55;;;10.77;;
30133;SDS011;16946;49.984;10.672;2024-01-10T01:43:55;17.83;;;9.63;;
30133;SDS011;16946;49.984;10.672;2024-01-10T01:44:26;18.87;;;11.37;;
30133;SDS011;16946;49.984;10.672;2024-01-10T01:44:56;15.00;;;10.47;;
30133;SDS011;16946;49.984;10.672;2024-01-10T01:45:27;14.70;;;10.07;;
30133;SDS011;16946;49.984;10.672;2024-01-10T01:45:57;20.20;;;10.20;;
30133;SDS011;16946;49.984;10.672;2024-01-10T01:46:28;15.37;;;10.27;;
30133;SDS011;16946;49.984;10.672;2024-01-10T01:46:59;17.47;;;10.83;;
30133;SDS011;16946;49.984;10.672;2024-01-10T01:47:30;19.17;;;10.83;;
30133;SDS011;16946;49.984;10.672;2024-01-10T01:48:00;15.75;;;9.73;;
30133;SDS011;16946;49.984;10.672;2024-01-10T01:48:31;17.70;;;10.13;;
30133;SDS011;16946;49.984;10.672;2024-01-10T01:49:02;20.17;;;12.13;;
30133;SDS011;16946;49.984;10.672;2024-01-10T01:49:33;15.85;;;10.63;;
30133;SDS011;16946;49.984;10.672;2024-01-10T01:50:04;19.13;;;10.90;;
30133;SDS011;16946;49.984;10.672;2024-01-10T01:50:35;20.25;;;11.82;;
30133;SDS011;16946;49.984;10.672;2024-01-10T01:51:07;18.17;;;10.63;;
30133;SDS011;16946;49.984;10.672;2024-01-10T01:51:39;18.25;;;10.55;;
30133;SDS011;16946;49.984;10.672;2024-01-10T01:52:10;15.23;;;10.40;;
30133;SDS011;16946;49.984;10.672;2024-01-10T01:52:41;14.97;;;10.80;;
30133;SDS011;16946;49.984;10.672;2024-01-10T01:53:12;16.77;;;10.48;;
30133;SDS011;16946;49.984;10.672;2024-01-10T01:53:44;16.55;;;10.40;;
30133;SDS011;16946;49.984;10.672;2024-01-10T01:54:15;18.60;;;11.07;;
30133;SDS011;16946;49.984;10.672;2024-01-10T01:54:46;16.00;;;10.90;;
30133;SDS011;16946;49.984;10.672;2024-01-10T01:55:17;18.17;;;11.35;;
30133;SDS011;16946;49.984;10.672;2024-01-10T01:55:48;15.47;;;10.47;;
30133;SDS011;16946;49.984;10.672;2024-01-10T01:56:19;19.67;;;10.93;;
30133;SDS011;16946;49.984;10.672;2024-01-10T01:56:50;13.93;;;9.70;;
30133;SDS011;16946;49.984;10.672;2024-01-10T01:57:21;17.45;;;10.90;;
30133;SDS011;16946;49.984;10.672;2024-01-10T01:57:52;15.88;;;11.18;;
30133;SDS011;16946;49.984;10.672;2024-01-10T01:58:23;13.00;;;9.80;;
30133;SDS011;16946;49.984;10.672;2024-01-10T01:58:54;17.38;;;10.25;;
30133;SDS011;16946;49.984;10.672;2024-01-10T01:59:25;19.85;;;10.98;;
30133;SDS011;16946;49.984;10.672;2024-01-10T01:59:56;19.50;;;10.57;;
30133;SDS011;16946;49.984;10.672;2024-01-10T02:00:27;22.67;;;11.02;;
30133;SDS011;16946;49.984;10.672;2024-01-10T02:00:57;19.50;;;10.83;;
30133;SDS011;16946;49.984;10.672;2024-01-10T02:01:29;19.90;;;11.57;;
30133;SDS011;16946;49.984;10.672;2024-01-10T02:02:00;19.63;;;10.73;;
30133;SDS011;16946;49.984;10.672;2024-01-10T02:02:34;15.85;;;10.38;;
30133;SDS011;16946;49.984;10.672;2024-01-10T02:03:08;18.95;;;10.60;;
30133;SDS011;16946;49.984;10.672;2024-01-10T02:03:39;19.10;;;11.25;;
30133;SDS011;16946;49.984;10.672;2024-01-10T02:04:10;14.60;;;11.03;;
30133;SDS011;16946;49.984;10.672;2024-01-10T02:04:41;14.15;;;9.65;;
30133;SDS011;16946;49.984;10.672;2024-01-10T02:05:12;19.50;;;10.53;;
30133;SDS011;16946;49.984;10.672;2024-01-10T02:05:45;22.90;;;10.45;;
30133;SDS011;16946;49.984;10.672;2024-01-10T02:06:16;19.98;;;10.85;;
30133;SDS011;16946;49.984;10.672;2024-01-10T02:06:46;22.07;;;10.63;;
30133;SDS011;16946;49.984;10.672;2024-01-10T02:07:17;16.67;;;10.87;;
30133;SDS011;16946;49.984;10.672;2024-01-10T02:07:48;17.17;;;11.07;;
30133;SDS011;16946;49.984;10.672;2024-01-10T02:08:18;17.97;;;10.60;;
30133;SDS011;16946;49.984;10.672;2024-01-10T02:08:49;18.47;;;10.50;;
30133;SDS011;16946;49.984;10.672;2024-01-10T02:09:19;17.27;;;10.57;;
30133;SDS011;16946;49.984;10.672;2024-01-10T02:09:50;16.97;;;10.57;;
30133;SDS011;16946;49.984;10.672;2024-01-10T02:10:21;15.17;;;11.13;;
30133;SDS011;16946;49.984;10.672;2024-01-10T02:10:51;14.63;;;10.13;;
30133;SDS011;16946;49.984;10.672;2024-01-10T02:11:22;17.33;;;11.70;;
30133;SDS011;16946;49.984;10.672;2024-01-10T02:11:54;13.82;;;10.20;;
30133;SDS011;16946;49.984;10.672;2024-01-10T02:12:25;17.93;;;11.17;;
30133;SDS011;16946;49.984;10.672;2024-01-10T02:12:56;14.47;;;10.57;;
30133;SDS011;16946;49.984;10.672;2024-01-10T02:13:27;16.60;;;10.30;;
30133;SDS011;16946;49.984;10.672;2024-01-10T02:13:58;15.43;;;9.77;;
30133;SDS011;16946;49.984;10.672;2024-01-10T02:14:28;15.83;;;10.47;;
30133;SDS011;16946;49.984;10.672;2024-01-10T02:14:59;16.30;;;10.37;;
30133;SDS011;16946;49.984;10.672;2024-01-10T02:15:30;19.40;;;12.00;;
30133;SDS011;16946;49.984;10.672;2024-01-10T02:16:00;13.57;;;11.10;;
30133;SDS011;16946;49.984;10.672;2024-01-10T02:16:33;15.32;;;10.02;;
30133;SDS011;16946;49.984;10.672;2024-01-10T02:17:03;21.13;;;10.73;;
30133;SDS011;16946;49.984;10.672;2024-01-10T02:17:35;17.58;;;10.30;;
30133;SDS011;16946;49.984;10.672;2024-01-10T02:18:05;17.83;;;11.10;;
30133;SDS011;16946;49.984;10.672;2024-01-10T02:18:36;14.00;;;10.03;;
30133;SDS011;16946;49.984;10.672;2024-01-10T02:19:20;20.70;;;10.30;;
30133;SDS011;16946;49.984;10.672;2024-01-10T02:20:08;19.10;;;11.00;;
30133;SDS011;16946;49.984;10.672;2024-01-10T02:20:43;14.80;;;9.75;;
30133;SDS011;16946;49.984;10.672;2024-01-10T02:21:14;15.60;;;11.23;;
30133;SDS011;16946;49.984;10.672;2024-01-10T02:21:45;16.00;;;9.90;;
30133;SDS011;16946;49.984;10.672;2024-01-10T02:22:16;18.20;;;11.30;;
30133;SDS011;16946;49.984;10.672;2024-01-10T02:22:46;18.57;;;11.40;;
30133;SDS011;16946;49.984;10.672;2024-01-10T02:23:17;17.07;;;10.73;;
30133;SDS011;16946;49.984;10.672;2024-01-10T02:23:48;19.37;;;11.77;;
30133;SDS011;16946;49.984;10.672;2024-01-10T02:24:18;15.47;;;10.50;;
30133;SDS011;16946;49.984;10.672;2024-01-10T02:24:52;20.23;;;11.73;;
30133;SDS011;16946;49.984;10.672;2024-01-10T02:25:23;18.88;;;10.63;;
30133;SDS011;16946;49.984;10.672;2024-01-10T02:25:54;15.77;;;10.50;;
30133;SDS011;16946;49.984;10.672;2024-01-10T02:26:25;16.53;;;10.47;;
30133;SDS011;16946;49.984;10.672;2024-01-10T02:26:57;17.55;;;10.98;;
30133;SDS011;16946;49.984;10.672;2024-01-10T02:27:27;19.73;;;10.77;;
30133;SDS011;16946;49.984;10.672;2024-01-10T02:27:58;19.97;;;10.37;;
30133;SDS011;16946;49.984;10.672;2024-01-10T02:28:28;17.00;;;11.13;;
30133;SDS011;16946;49.984;10.672;2024-01-10T02:28:59;20.03;;;11.00;;
30133;SDS011;16946;49.984;10.672;2024-01-10T02:29:30;14.27;;;10.43;;
30133;SDS011;16946;49.984;10.672;2024-01-10T02:30:02;25.92;;;10.50;;
30133;SDS011;16946;49.984;10.672;2024-01-10T02:30:33;17.30;;;10.77;;
30133;SDS011;16946;49.984;10.672;2024-01-10T02:31:04;17.33;;;10.57;;
30133;SDS011;16946;49.984;10.672;2024-01-10T02:31:35;19.80;;;11.60;;
30133;SDS011;16946;49.984;10.672;2024-01-10T02:32:05;17.10;;;10.67;;
30133;SDS011;16946;49.984;10.672;2024-01-10T02:32:36;13.97;;;10.07;;
30133;SDS011;16946;49.984;10.672;2024-01-10T02:33:07;19.27;;;10.70;;
30133;SDS011;16946;49.984;10.672;2024-01-10T02:33:38;16.50;;;10.30;;
30133;SDS011;16946;49.984;10.672;2024-01-10T02:34:09;16.05;;;10.50;;
30133;SDS011;16946;49.984;10.672;2024-01-10T02:34:39;15.23;;;10.30;;
30133;SDS011;16946;49.984;10.672;2024-01-10T02:35:10;18.60;;;10.70;;
30133;SDS011;16946;49.984;10.672;2024-01-10T02:35:40;14.53;;;10.73;;
30133;SDS011;16946;49.984;10.672;2024-01-10T02:36:11;19.13;;;11.00;;
30133;SDS011;16946;49.984;10.672;2024-01-10T02:36:41;20.60;;;11.37;;
30133;SDS011;16946;49.984;10.672;2024-01-10T02:37:12;17.80;;;10.60;;
30133;SDS011;16946;49.984;10.672;2024-01-10T02:37:42;16.30;;;10.30;;
30133;SDS011;16946;49.984;10.672;2024-01-10T02:38:13;15.43;;;9.57;;
30133;SDS011;16946;49.984;10.672;2024-01-10T02:38:43;13.70;;;10.00;;
30133;SDS011;16946;49.984;10.672;2024-01-10T02:39:14;15.63;;;11.30;;
30133;SDS011;16946;49.984;10.672;2024-01-10T02:39:44;20.20;;;10.43;;
30133;SDS011;16946;49.984;10.672;2024-01-10T02:40:15;16.70;;;10.33;;
30133;SDS011;16946;49.984;10.672;2024-01-10T02:40:46;17.37;;;10.63;;
30133;SDS011;16946;49.984;10.672;2024-01-10T02:41:16;15.80;;;10.60;;
30133;SDS011;16946;49.984;10.672;2024-01-10T02:41:47;13.50;;;10.23;;
30133;SDS011;16946;49.984;10.672;2024-01-10T02:42:17;21.37;;;11.43;;
30133;SDS011;16946;49.984;10.672;2024-01-10T02:42:48;16.77;;;11.50;;
30133;SDS011;16946;49.984;10.672;2024-01-10T02:43:21;14.65;;;10.48;;
30133;SDS011;16946;49.984;10.672;2024-01-10T02:43:51;15.10;;;10.97;;
30133;SDS011;16946;49.984;10.672;2024-01-10T02:44:22;17.17;;;10.33;;
30133;SDS011;16946;49.984;10.672;2024-01-10T02:44:53;16.38;;;10.65;;
30133;SDS011;16946;49.984;10.672;2024-01-10T02:45:23;22.07;;;11.17;;
30133;SDS011;16946;49.984;10.672;2024-01-10T02:45:54;18.00;;;10.80;;
30133;SDS011;16946;49.984;10.672;2024-01-10T02:46:25;17.37;;;10.67;;
30133;SDS011;16946;49.984;10.672;2024-01-10T02:46:57;18.40;;;10.70;;
30133;SDS011;16946;49.984;10.672;2024-01-10T02:47:28;20.60;;;11.13;;
30133;SDS011;16946;49.984;10.672;2024-01-10T02:47:59;15.90;;;10.05;;
30133;SDS011;16946;49.984;10.672;2024-01-10T02:48:29;18.90;;;11.20;;
30133;SDS011;16946;49.984;10.672;2024-01-10T02:49:00;18.77;;;10.57;;
30133;SDS011;16946;49.984;10.672;2024-01-10T02:49:30;14.63;;;10.00;;
30133;SDS011;16946;49.984;10.672;2024-01-10T02:50:01;15.37;;;10.90;;
30133;SDS011;16946;49.984;10.672;2024-01-10T02:50:32;17.37;;;10.53;;
30133;SDS011;16946;49.984;10.672;2024-01-10T02:51:02;18.50;;;9.90;;
30133;SDS011;16946;49.984;10.672;2024-01-10T02:51:34;20.17;;;10.70;;
30133;SDS011;16946;49.984;10.672;2024-01-10T02:52:04;18.63;;;10.57;;
30133;SDS011;16946;49.984;10.672;2024-01-10T02:52:35;14.82;;;10.13;;
30133;SDS011;16946;49.984;10.672;2024-01-10T02:53:06;21.77;;;11.13;;
30133;SDS011;16946;49.984;10.672;2024-01-10T02:53:36;18.97;;;11.77;;
30133;SDS011;16946;49.984;10.672;2024-01-10T02:54:07;17.77;;;11.13;;
30133;SDS011;16946;49.984;10.672;2024-01-10T02:54:37;17.20;;;10.57;;
30133;SDS011;16946;49.984;10.672;2024-01-10T02:55:08;17.70;;;10.10;;
30133;SDS011;16946;49.984;10.672;2024-01-10T02:55:38;22.37;;;12.00;;
30133;SDS011;16946;49.984;10.672;2024-01-10T02:56:10;21.02;;;10.98;;
30133;SDS011;16946;49.984;10.672;2024-01-10T02:56:40;18.63;;;10.00;;
30133;SDS011;16946;49.984;10.672;2024-01-10T02:57:11;17.50;;;10.97;;
30133;SDS011;16946;49.984;10.672;2024-01-10T02:57:41;20.73;;;11.00;;
30133;SDS011;16946;49.984;10.672;2024-01-10T02:58:12;19.23;;;10.20;;